Gerrit Braren — DGYW2 — position and weather

sailwx.info

Track history (hours):
 
Tides and Currents Weather Stations Pressure Air Temp Water Temp Dewpoint Dewpoint Depression Visibility Wind Speed Wind Dir Waves Ship Positions

Gerrit Braren

Last reported at 2018-Jun-18 09:35 UTC. Time now 2018-Jun-20 05:19 UTC.
Position N 37°37' E 025°53'.

Length 182 m; draft 8.9 m.

Type: Ship. MMSI: 218823000.

Date/timePositionNaut miles runAvg speedWind from/ knotsBaromVisibWave heightAir tempDewpointWater temp
2018-Jun-18 09:35N 37°37' E 025°53'1 8.7
2018-Jun-18 09:30N 37°37' E 025°54'4 8.4
2018-Jun-18 09:00N 37°33' E 025°54'  
2018-Jun-16 03:11N 31°32' E 032°16'311.9
2018-Jun-16 02:54N 31°30' E 032°19'512.7
2018-Jun-16 02:30N 31°28' E 032°24'611.2
2018-Jun-16 02:00N 31°22' E 032°24'611.6
2018-Jun-16 01:30N 31°16' E 032°22'3 6.3
2018-Jun-16 00:58N 31°13' E 032°21'0 0.0
2018-Jun-16 00:26N 31°13' E 032°21'0 0.0
2018-Jun-15 23:59N 31°13' E 032°21'0 0.0
2018-Jun-15 23:26N 31°13' E 032°21'0 0.0
2018-Jun-15 22:59N 31°13' E 032°21'0 0.0
2018-Jun-15 22:29N 31°13' E 032°21'0 0.0
2018-Jun-15 21:59N 31°13' E 032°21'0 0.0
2018-Jun-15 21:20N 31°13' E 032°21'0 0.0
2018-Jun-15 20:59N 31°13' E 032°21'0 0.0
2018-Jun-15 20:26N 31°13' E 032°21'0 0.0
2018-Jun-15 19:59N 31°13' E 032°21'0 0.0
2018-Jun-15 19:29N 31°13' E 032°21'0 0.0
2018-Jun-15 18:53N 31°13' E 032°21'0 0.0
2018-Jun-15 18:29N 31°13' E 032°21'0 0.0
2018-Jun-15 17:56N 31°13' E 032°21'0 0.0
2018-Jun-15 17:29N 31°13' E 032°21'0 0.0
2018-Jun-15 16:32N 31°13' E 032°21'0 0.0
2018-Jun-15 16:26N 31°13' E 032°21'0 0.0
2018-Jun-15 15:56N 31°13' E 032°21'0 0.0
2018-Jun-15 15:29N 31°13' E 032°21'0 0.0
2018-Jun-15 14:56N 31°13' E 032°21'0 0.0
2018-Jun-15 14:07N 31°13' E 032°21'0 0.0
2018-Jun-15 13:59N 31°13' E 032°21'0 0.0
2018-Jun-15 13:28N 31°13' E 032°21'0 0.0
2018-Jun-15 12:55N 31°13' E 032°21'0 0.0
2018-Jun-15 12:28N 31°13' E 032°21'0 0.0
2018-Jun-15 11:55N 31°13' E 032°21'0 0.0
2018-Jun-15 11:25N 31°13' E 032°21'0 0.0
2018-Jun-15 10:49N 31°13' E 032°21'0 0.0
2018-Jun-15 10:25N 31°13' E 032°21'0 0.0
2018-Jun-15 09:58N 31°13' E 032°21'0 0.0
2018-Jun-15 05:22N 31°13' E 032°21'12 2.7
2018-Jun-15 00:51N 31°24' E 032°27'0 0.0
2018-Jun-15 00:30N 31°24' E 032°27'0 0.1
2018-Jun-14 23:45N 31°24' E 032°27'0 0.1
2018-Jun-14 22:09N 31°24' E 032°27'0 0.2
2018-Jun-14 21:51N 31°24' E 032°27'0 0.0
2018-Jun-14 12:03N 31°24' E 032°27'0 0.0
2018-Jun-14 11:54N 31°24' E 032°27'0 0.0
2018-Jun-13 19:12N 31°24' E 032°27'0 0.1
2018-Jun-13 19:00N 31°24' E 032°27'145 3.1
2018-Jun-11 19:44N 32°56' E 034°39'310.7
2018-Jun-11 19:29N 32°56' E 034°42'511.1
2018-Jun-11 18:59N 32°55' E 034°48'511.0
2018-Jun-11 18:30N 32°53' E 034°54'6 0.6
2018-Jun-11 09:41N 32°51' E 035°00'0 0.0
2018-Jun-10 21:36N 32°51' E 035°01'0 0.1
2018-Jun-10 21:30N 32°51' E 035°01'0 0.0
2018-Jun-10 21:00N 32°51' E 035°01'0 0.0
2018-Jun-09 15:34N 32°51' E 035°00'0 2.3
2018-Jun-09 15:31N 32°51' E 035°00'1210.1
2018-Jun-09 14:17N 32°54' E 034°46'411.5
2018-Jun-09 13:56N 32°55' E 034°41'611.4
2018-Jun-09 13:25N 32°56' E 034°34'511.4
2018-Jun-09 12:59N 32°57' E 034°29'611.5
2018-Jun-09 12:30N 32°58' E 034°22'611.6
2018-Jun-09 12:00N 32°59' E 034°15'1411.6
2018-Jun-09 10:50N 33°01' E 033°59'511.5
2018-Jun-09 10:25N 33°01' E 033°54'511.6
2018-Jun-09 10:00N 33°00' E 033°48'611.8
2018-Jun-09 09:30N 32°59' E 033°41'610.9
2018-Jun-09 08:59N 32°57' E 033°35'2111.8
2018-Jun-09 07:12N 32°39' E 033°22'312.2
2018-Jun-09 07:00N 32°37' E 033°21'612.2
2018-Jun-09 06:30N 32°31' E 033°17'812.1
2018-Jun-09 05:52N 32°25' E 033°12'412.0
2018-Jun-09 05:30N 32°21' E 033°10'1612.2
2018-Jun-09 04:11N 32°07' E 032°60'2712.1
2018-Jun-09 01:59N 31°45' E 032°42'38 6.1
2018-Jun-08 19:48N 31°12' E 032°21'0 0.0
2018-Jun-08 19:27N 31°12' E 032°21'0 0.0
2018-Jun-08 15:21N 31°12' E 032°21'0 0.0
2018-Jun-08 14:50N 31°12' E 032°21'0 0.0
2018-Jun-08 14:22N 31°12' E 032°21'0 0.0
2018-Jun-08 13:58N 31°12' E 032°21'0 0.0
2018-Jun-08 13:28N 31°12' E 032°21'0 0.0
2018-Jun-08 12:58N 31°12' E 032°21'0 0.7
2018-Jun-08 12:30N 31°12' E 032°21'4 7.6
2018-Jun-08 12:00N 31°16' E 032°22'4 8.7
2018-Jun-08 11:30N 31°20' E 032°23'  
Track history (hours):
 
Tides and Currents Weather Stations Pressure Air Temp Water Temp Dewpoint Dewpoint Depression Visibility Wind Speed Wind Dir Waves Ship Positions

Gerrit Braren

Last reported at 2018-Jun-18 09:35 UTC. Time now 2018-Jun-20 05:19 UTC.
Position N 37°37' E 025°53'.

Length 182 m; draft 8.9 m.

Type: Ship. MMSI: 218823000.

Date/timePositionNaut miles runAvg speedWind from/ knotsBaromVisibWave heightAir tempDewpointWater temp
2018-Jun-18 09:35N 37°37' E 025°53'1 8.7
2018-Jun-18 09:30N 37°37' E 025°54'4 8.4
2018-Jun-18 09:00N 37°33' E 025°54'  
2018-Jun-16 03:11N 31°32' E 032°16'311.9
2018-Jun-16 02:54N 31°30' E 032°19'512.7
2018-Jun-16 02:30N 31°28' E 032°24'611.2
2018-Jun-16 02:00N 31°22' E 032°24'611.6
2018-Jun-16 01:30N 31°16' E 032°22'3 6.3
2018-Jun-16 00:58N 31°13' E 032°21'0 0.0
2018-Jun-16 00:26N 31°13' E 032°21'0 0.0
2018-Jun-15 23:59N 31°13' E 032°21'0 0.0
2018-Jun-15 23:26N 31°13' E 032°21'0 0.0
2018-Jun-15 22:59N 31°13' E 032°21'0 0.0
2018-Jun-15 22:29N 31°13' E 032°21'0 0.0
2018-Jun-15 21:59N 31°13' E 032°21'0 0.0
2018-Jun-15 21:20N 31°13' E 032°21'0 0.0
2018-Jun-15 20:59N 31°13' E 032°21'0 0.0
2018-Jun-15 20:26N 31°13' E 032°21'0 0.0
2018-Jun-15 19:59N 31°13' E 032°21'0 0.0
2018-Jun-15 19:29N 31°13' E 032°21'0 0.0
2018-Jun-15 18:53N 31°13' E 032°21'0 0.0
2018-Jun-15 18:29N 31°13' E 032°21'0 0.0
2018-Jun-15 17:56N 31°13' E 032°21'0 0.0
2018-Jun-15 17:29N 31°13' E 032°21'0 0.0
2018-Jun-15 16:32N 31°13' E 032°21'0 0.0
2018-Jun-15 16:26N 31°13' E 032°21'0 0.0
2018-Jun-15 15:56N 31°13' E 032°21'0 0.0
2018-Jun-15 15:29N 31°13' E 032°21'0 0.0
2018-Jun-15 14:56N 31°13' E 032°21'0 0.0
2018-Jun-15 14:07N 31°13' E 032°21'0 0.0
2018-Jun-15 13:59N 31°13' E 032°21'0 0.0
2018-Jun-15 13:28N 31°13' E 032°21'0 0.0
2018-Jun-15 12:55N 31°13' E 032°21'0 0.0
2018-Jun-15 12:28N 31°13' E 032°21'0 0.0
2018-Jun-15 11:55N 31°13' E 032°21'0 0.0
2018-Jun-15 11:25N 31°13' E 032°21'0 0.0
2018-Jun-15 10:49N 31°13' E 032°21'0 0.0
2018-Jun-15 10:25N 31°13' E 032°21'0 0.0
2018-Jun-15 09:58N 31°13' E 032°21'0 0.0
2018-Jun-15 05:22N 31°13' E 032°21'12 2.7
2018-Jun-15 00:51N 31°24' E 032°27'0 0.0
2018-Jun-15 00:30N 31°24' E 032°27'0 0.1
2018-Jun-14 23:45N 31°24' E 032°27'0 0.1
2018-Jun-14 22:09N 31°24' E 032°27'0 0.2
2018-Jun-14 21:51N 31°24' E 032°27'0 0.0
2018-Jun-14 12:03N 31°24' E 032°27'0 0.0
2018-Jun-14 11:54N 31°24' E 032°27'0 0.0
2018-Jun-13 19:12N 31°24' E 032°27'0 0.1
2018-Jun-13 19:00N 31°24' E 032°27'145 3.1
2018-Jun-11 19:44N 32°56' E 034°39'310.7
2018-Jun-11 19:29N 32°56' E 034°42'511.1
2018-Jun-11 18:59N 32°55' E 034°48'511.0
2018-Jun-11 18:30N 32°53' E 034°54'6 0.6
2018-Jun-11 09:41N 32°51' E 035°00'0 0.0
2018-Jun-10 21:36N 32°51' E 035°01'0 0.1
2018-Jun-10 21:30N 32°51' E 035°01'0 0.0
2018-Jun-10 21:00N 32°51' E 035°01'0 0.0
2018-Jun-09 15:34N 32°51' E 035°00'0 2.3
2018-Jun-09 15:31N 32°51' E 035°00'1210.1
2018-Jun-09 14:17N 32°54' E 034°46'411.5
2018-Jun-09 13:56N 32°55' E 034°41'611.4
2018-Jun-09 13:25N 32°56' E 034°34'511.4
2018-Jun-09 12:59N 32°57' E 034°29'611.5
2018-Jun-09 12:30N 32°58' E 034°22'611.6
2018-Jun-09 12:00N 32°59' E 034°15'1411.6
2018-Jun-09 10:50N 33°01' E 033°59'511.5
2018-Jun-09 10:25N 33°01' E 033°54'511.6
2018-Jun-09 10:00N 33°00' E 033°48'611.8
2018-Jun-09 09:30N 32°59' E 033°41'610.9
2018-Jun-09 08:59N 32°57' E 033°35'2111.8
2018-Jun-09 07:12N 32°39' E 033°22'312.2
2018-Jun-09 07:00N 32°37' E 033°21'612.2
2018-Jun-09 06:30N 32°31' E 033°17'812.1
2018-Jun-09 05:52N 32°25' E 033°12'412.0
2018-Jun-09 05:30N 32°21' E 033°10'1612.2
2018-Jun-09 04:11N 32°07' E 032°60'2712.1
2018-Jun-09 01:59N 31°45' E 032°42'38 6.1
2018-Jun-08 19:48N 31°12' E 032°21'0 0.0
2018-Jun-08 19:27N 31°12' E 032°21'0 0.0
2018-Jun-08 15:21N 31°12' E 032°21'0 0.0
2018-Jun-08 14:50N 31°12' E 032°21'0 0.0
2018-Jun-08 14:22N 31°12' E 032°21'0 0.0
2018-Jun-08 13:58N 31°12' E 032°21'0 0.0
2018-Jun-08 13:28N 31°12' E 032°21'0 0.0
2018-Jun-08 12:58N 31°12' E 032°21'0 0.7
2018-Jun-08 12:30N 31°12' E 032°21'4 7.6
2018-Jun-08 12:00N 31°16' E 032°22'4 8.7
2018-Jun-08 11:30N 31°20' E 032°23'  

Dump ship's entire track history